sensor_id;sensor_type;location;lat;lon;timestamp;P1;durP1;ratioP1;P2;durP2;ratioP2
30398;SDS011;17195;50.838;7.214;2023-04-24T00:00:32;1.02;;;0.63;;
30398;SDS011;17195;50.838;7.214;2023-04-24T00:02:58;1.40;;;0.40;;
30398;SDS011;17195;50.838;7.214;2023-04-24T00:05:24;0.50;;;0.50;;
30398;SDS011;17195;50.838;7.214;2023-04-24T00:07:49;0.70;;;0.50;;
30398;SDS011;17195;50.838;7.214;2023-04-24T00:10:19;1.25;;;0.57;;
30398;SDS011;17195;50.838;7.214;2023-04-24T00:12:44;1.30;;;0.60;;
30398;SDS011;17195;50.838;7.214;2023-04-24T00:15:10;1.55;;;0.50;;
30398;SDS011;17195;50.838;7.214;2023-04-24T00:17:36;0.60;;;0.55;;
30398;SDS011;17195;50.838;7.214;2023-04-24T00:20:02;3.65;;;0.70;;
30398;SDS011;17195;50.838;7.214;2023-04-24T00:22:29;0.40;;;0.40;;
30398;SDS011;17195;50.838;7.214;2023-04-24T00:24:55;0.65;;;0.38;;
30398;SDS011;17195;50.838;7.214;2023-04-24T00:27:21;0.43;;;0.43;;
30398;SDS011;17195;50.838;7.214;2023-04-24T00:29:48;0.40;;;0.40;;
30398;SDS011;17195;50.838;7.214;2023-04-24T00:32:13;1.05;;;0.50;;
30398;SDS011;17195;50.838;7.214;2023-04-24T00:34:39;0.70;;;0.50;;
30398;SDS011;17195;50.838;7.214;2023-04-24T00:37:05;1.10;;;0.88;;
30398;SDS011;17195;50.838;7.214;2023-04-24T00:39:31;1.15;;;0.40;;
30398;SDS011;17195;50.838;7.214;2023-04-24T00:41:57;1.92;;;0.40;;
30398;SDS011;17195;50.838;7.214;2023-04-24T00:44:23;1.00;;;0.40;;
30398;SDS011;17195;50.838;7.214;2023-04-24T00:46:49;1.77;;;0.50;;
30398;SDS011;17195;50.838;7.214;2023-04-24T00:49:19;2.45;;;0.40;;
30398;SDS011;17195;50.838;7.214;2023-04-24T00:51:46;0.20;;;0.20;;
30398;SDS011;17195;50.838;7.214;2023-04-24T00:54:15;1.27;;;0.50;;
30398;SDS011;17195;50.838;7.214;2023-04-24T00:56:41;0.55;;;0.32;;
30398;SDS011;17195;50.838;7.214;2023-04-24T00:59:07;0.40;;;0.30;;
30398;SDS011;17195;50.838;7.214;2023-04-24T01:01:34;0.63;;;0.30;;
30398;SDS011;17195;50.838;7.214;2023-04-24T01:04:00;2.40;;;0.32;;
30398;SDS011;17195;50.838;7.214;2023-04-24T01:06:29;0.20;;;0.20;;
30398;SDS011;17195;50.838;7.214;2023-04-24T01:08:56;0.45;;;0.30;;
30398;SDS011;17195;50.838;7.214;2023-04-24T01:11:23;1.30;;;0.40;;
30398;SDS011;17195;50.838;7.214;2023-04-24T01:13:50;0.40;;;0.22;;
30398;SDS011;17195;50.838;7.214;2023-04-24T01:16:15;0.55;;;0.28;;
30398;SDS011;17195;50.838;7.214;2023-04-24T01:18:42;0.65;;;0.30;;
30398;SDS011;17195;50.838;7.214;2023-04-24T01:21:08;0.47;;;0.40;;
30398;SDS011;17195;50.838;7.214;2023-04-24T01:23:37;1.60;;;0.30;;
30398;SDS011;17195;50.838;7.214;2023-04-24T01:26:03;0.88;;;0.25;;
30398;SDS011;17195;50.838;7.214;2023-04-24T01:28:29;0.70;;;0.43;;
30398;SDS011;17195;50.838;7.214;2023-04-24T01:30:55;3.53;;;0.90;;
30398;SDS011;17195;50.838;7.214;2023-04-24T01:33:21;0.30;;;0.30;;
30398;SDS011;17195;50.838;7.214;2023-04-24T01:35:47;0.82;;;0.40;;
30398;SDS011;17195;50.838;7.214;2023-04-24T01:38:13;0.50;;;0.30;;
30398;SDS011;17195;50.838;7.214;2023-04-24T01:40:39;0.30;;;0.30;;
30398;SDS011;17195;50.838;7.214;2023-04-24T01:43:05;0.50;;;0.30;;
30398;SDS011;17195;50.838;7.214;2023-04-24T01:45:30;2.53;;;0.70;;
30398;SDS011;17195;50.838;7.214;2023-04-24T01:47:56;2.08;;;0.80;;
30398;SDS011;17195;50.838;7.214;2023-04-24T01:50:22;1.25;;;1.00;;
30398;SDS011;17195;50.838;7.214;2023-04-24T01:52:47;2.15;;;1.20;;
30398;SDS011;17195;50.838;7.214;2023-04-24T01:55:13;1.45;;;0.88;;
30398;SDS011;17195;50.838;7.214;2023-04-24T01:57:38;2.83;;;1.00;;
30398;SDS011;17195;50.838;7.214;2023-04-24T02:00:05;2.10;;;1.30;;
30398;SDS011;17195;50.838;7.214;2023-04-24T02:02:32;0.85;;;0.82;;
30398;SDS011;17195;50.838;7.214;2023-04-24T02:04:57;1.33;;;1.02;;
30398;SDS011;17195;50.838;7.214;2023-04-24T02:07:23;1.48;;;0.90;;
30398;SDS011;17195;50.838;7.214;2023-04-24T02:09:48;3.55;;;1.40;;
30398;SDS011;17195;50.838;7.214;2023-04-24T02:12:14;2.58;;;1.00;;
30398;SDS011;17195;50.838;7.214;2023-04-24T02:14:42;1.35;;;1.15;;
30398;SDS011;17195;50.838;7.214;2023-04-24T02:17:08;3.17;;;1.20;;
30398;SDS011;17195;50.838;7.214;2023-04-24T02:19:33;3.47;;;1.13;;
30398;SDS011;17195;50.838;7.214;2023-04-24T02:21:59;2.72;;;1.40;;
30398;SDS011;17195;50.838;7.214;2023-04-24T02:24:24;2.40;;;0.93;;
30398;SDS011;17195;50.838;7.214;2023-04-24T02:26:50;1.38;;;1.20;;
30398;SDS011;17195;50.838;7.214;2023-04-24T02:29:16;2.22;;;1.20;;
30398;SDS011;17195;50.838;7.214;2023-04-24T02:31:41;1.30;;;1.20;;
30398;SDS011;17195;50.838;7.214;2023-04-24T02:34:07;2.88;;;1.40;;
30398;SDS011;17195;50.838;7.214;2023-04-24T02:36:32;3.53;;;1.20;;
30398;SDS011;17195;50.838;7.214;2023-04-24T02:38:58;2.72;;;1.45;;
30398;SDS011;17195;50.838;7.214;2023-04-24T02:41:23;3.05;;;2.10;;
30398;SDS011;17195;50.838;7.214;2023-04-24T02:43:49;5.65;;;2.35;;
30398;SDS011;17195;50.838;7.214;2023-04-24T02:46:14;4.30;;;2.55;;
30398;SDS011;17195;50.838;7.214;2023-04-24T02:48:40;4.03;;;2.45;;
30398;SDS011;17195;50.838;7.214;2023-04-24T02:51:05;4.45;;;2.40;;
30398;SDS011;17195;50.838;7.214;2023-04-24T02:53:31;4.50;;;2.83;;
30398;SDS011;17195;50.838;7.214;2023-04-24T02:55:57;5.65;;;2.92;;
30398;SDS011;17195;50.838;7.214;2023-04-24T02:58:23;5.68;;;2.80;;
30398;SDS011;17195;50.838;7.214;2023-04-24T03:00:52;4.13;;;3.28;;
30398;SDS011;17195;50.838;7.214;2023-04-24T03:03:18;6.50;;;3.65;;
30398;SDS011;17195;50.838;7.214;2023-04-24T03:05:44;4.85;;;3.67;;
30398;SDS011;17195;50.838;7.214;2023-04-24T03:08:10;5.57;;;4.10;;
30398;SDS011;17195;50.838;7.214;2023-04-24T03:10:36;5.95;;;3.83;;
30398;SDS011;17195;50.838;7.214;2023-04-24T03:13:01;4.90;;;3.60;;
30398;SDS011;17195;50.838;7.214;2023-04-24T03:15:27;5.40;;;4.03;;
30398;SDS011;17195;50.838;7.214;2023-04-24T03:17:52;7.15;;;3.95;;
30398;SDS011;17195;50.838;7.214;2023-04-24T03:20:18;6.07;;;4.35;;
30398;SDS011;17195;50.838;7.214;2023-04-24T03:22:44;11.13;;;4.25;;
30398;SDS011;17195;50.838;7.214;2023-04-24T03:25:09;4.55;;;3.80;;
30398;SDS011;17195;50.838;7.214;2023-04-24T03:27:35;4.00;;;3.58;;
30398;SDS011;17195;50.838;7.214;2023-04-24T03:30:00;6.82;;;3.88;;
30398;SDS011;17195;50.838;7.214;2023-04-24T03:32:27;4.85;;;3.47;;
30398;SDS011;17195;50.838;7.214;2023-04-24T03:34:52;4.13;;;3.60;;
30398;SDS011;17195;50.838;7.214;2023-04-24T03:37:18;6.40;;;3.45;;
30398;SDS011;17195;50.838;7.214;2023-04-24T03:39:43;5.15;;;3.33;;
30398;SDS011;17195;50.838;7.214;2023-04-24T03:42:09;4.10;;;3.42;;
30398;SDS011;17195;50.838;7.214;2023-04-24T03:44:35;4.43;;;3.50;;
30398;SDS011;17195;50.838;7.214;2023-04-24T03:47:01;5.10;;;3.38;;
30398;SDS011;17195;50.838;7.214;2023-04-24T03:49:27;4.82;;;3.50;;
30398;SDS011;17195;50.838;7.214;2023-04-24T03:51:52;4.00;;;3.55;;
30398;SDS011;17195;50.838;7.214;2023-04-24T03:54:18;5.38;;;4.20;;
30398;SDS011;17195;50.838;7.214;2023-04-24T03:56:44;5.70;;;3.88;;
30398;SDS011;17195;50.838;7.214;2023-04-24T03:59:10;5.28;;;4.00;;
30398;SDS011;17195;50.838;7.214;2023-04-24T04:01:36;5.18;;;4.20;;
30398;SDS011;17195;50.838;7.214;2023-04-24T04:04:02;5.20;;;3.90;;
30398;SDS011;17195;50.838;7.214;2023-04-24T04:06:28;5.63;;;4.30;;
30398;SDS011;17195;50.838;7.214;2023-04-24T04:08:55;5.43;;;3.83;;
30398;SDS011;17195;50.838;7.214;2023-04-24T04:11:21;5.88;;;4.40;;
30398;SDS011;17195;50.838;7.214;2023-04-24T04:13:47;4.90;;;4.20;;
30398;SDS011;17195;50.838;7.214;2023-04-24T04:16:13;6.70;;;4.40;;
30398;SDS011;17195;50.838;7.214;2023-04-24T04:18:38;5.38;;;4.30;;
30398;SDS011;17195;50.838;7.214;2023-04-24T04:21:04;4.18;;;3.78;;
30398;SDS011;17195;50.838;7.214;2023-04-24T04:23:30;7.20;;;3.97;;
30398;SDS011;17195;50.838;7.214;2023-04-24T04:25:56;5.57;;;4.20;;
30398;SDS011;17195;50.838;7.214;2023-04-24T04:28:22;4.70;;;3.70;;
30398;SDS011;17195;50.838;7.214;2023-04-24T04:30:49;5.93;;;3.83;;
30398;SDS011;17195;50.838;7.214;2023-04-24T04:33:18;4.60;;;3.78;;
30398;SDS011;17195;50.838;7.214;2023-04-24T04:35:47;6.63;;;4.13;;
30398;SDS011;17195;50.838;7.214;2023-04-24T04:38:21;5.22;;;4.10;;
30398;SDS011;17195;50.838;7.214;2023-04-24T04:40:47;7.07;;;3.88;;
30398;SDS011;17195;50.838;7.214;2023-04-24T04:43:13;4.32;;;3.55;;
30398;SDS011;17195;50.838;7.214;2023-04-24T04:45:39;5.32;;;3.40;;
30398;SDS011;17195;50.838;7.214;2023-04-24T04:48:07;6.82;;;3.63;;
30398;SDS011;17195;50.838;7.214;2023-04-24T04:50:34;3.80;;;2.97;;
30398;SDS011;17195;50.838;7.214;2023-04-24T04:53:00;4.55;;;3.30;;
30398;SDS011;17195;50.838;7.214;2023-04-24T04:55:25;5.57;;;3.70;;
30398;SDS011;17195;50.838;7.214;2023-04-24T04:57:51;4.85;;;3.00;;
30398;SDS011;17195;50.838;7.214;2023-04-24T05:00:17;3.85;;;3.13;;
30398;SDS011;17195;50.838;7.214;2023-04-24T05:02:43;5.13;;;3.33;;
30398;SDS011;17195;50.838;7.214;2023-04-24T05:05:09;5.30;;;3.30;;
30398;SDS011;17195;50.838;7.214;2023-04-24T05:07:35;4.90;;;3.25;;
30398;SDS011;17195;50.838;7.214;2023-04-24T05:10:01;6.65;;;3.40;;
30398;SDS011;17195;50.838;7.214;2023-04-24T05:12:27;4.15;;;3.17;;
30398;SDS011;17195;50.838;7.214;2023-04-24T05:14:52;5.72;;;3.10;;
30398;SDS011;17195;50.838;7.214;2023-04-24T05:17:18;4.80;;;3.35;;
30398;SDS011;17195;50.838;7.214;2023-04-24T05:19:43;3.60;;;3.10;;
30398;SDS011;17195;50.838;7.214;2023-04-24T05:22:09;7.05;;;3.50;;
30398;SDS011;17195;50.838;7.214;2023-04-24T05:24:36;6.05;;;3.45;;
30398;SDS011;17195;50.838;7.214;2023-04-24T05:27:02;8.93;;;3.42;;
30398;SDS011;17195;50.838;7.214;2023-04-24T05:29:29;6.63;;;3.17;;
30398;SDS011;17195;50.838;7.214;2023-04-24T05:31:56;5.30;;;3.17;;
30398;SDS011;17195;50.838;7.214;2023-04-24T05:34:22;5.35;;;3.50;;
30398;SDS011;17195;50.838;7.214;2023-04-24T05:36:47;5.57;;;3.97;;
30398;SDS011;17195;50.838;7.214;2023-04-24T05:39:13;6.32;;;3.85;;
30398;SDS011;17195;50.838;7.214;2023-04-24T05:41:40;5.28;;;3.88;;
30398;SDS011;17195;50.838;7.214;2023-04-24T05:44:05;4.93;;;3.55;;
30398;SDS011;17195;50.838;7.214;2023-04-24T05:46:31;5.20;;;4.07;;
30398;SDS011;17195;50.838;7.214;2023-04-24T05:48:56;4.50;;;3.40;;
30398;SDS011;17195;50.838;7.214;2023-04-24T05:51:22;4.22;;;3.53;;
30398;SDS011;17195;50.838;7.214;2023-04-24T05:53:48;4.15;;;3.47;;
30398;SDS011;17195;50.838;7.214;2023-04-24T05:56:13;7.72;;;3.63;;
30398;SDS011;17195;50.838;7.214;2023-04-24T05:58:39;7.90;;;4.25;;
30398;SDS011;17195;50.838;7.214;2023-04-24T06:01:05;5.50;;;3.20;;
30398;SDS011;17195;50.838;7.214;2023-04-24T06:03:31;6.20;;;3.80;;
30398;SDS011;17195;50.838;7.214;2023-04-24T06:05:56;5.95;;;4.13;;
30398;SDS011;17195;50.838;7.214;2023-04-24T06:08:22;4.85;;;3.55;;
30398;SDS011;17195;50.838;7.214;2023-04-24T06:10:47;4.60;;;3.70;;
30398;SDS011;17195;50.838;7.214;2023-04-24T06:13:13;5.95;;;3.53;;
30398;SDS011;17195;50.838;7.214;2023-04-24T06:15:38;4.97;;;3.65;;
30398;SDS011;17195;50.838;7.214;2023-04-24T06:18:05;5.15;;;4.00;;
30398;SDS011;17195;50.838;7.214;2023-04-24T06:20:31;8.75;;;5.97;;
30398;SDS011;17195;50.838;7.214;2023-04-24T06:22:56;7.07;;;4.50;;
30398;SDS011;17195;50.838;7.214;2023-04-24T06:25:24;6.07;;;3.53;;
30398;SDS011;17195;50.838;7.214;2023-04-24T06:27:50;6.88;;;4.40;;
30398;SDS011;17195;50.838;7.214;2023-04-24T06:30:16;8.88;;;3.83;;
30398;SDS011;17195;50.838;7.214;2023-04-24T06:32:41;6.68;;;4.15;;
30398;SDS011;17195;50.838;7.214;2023-04-24T06:35:07;6.30;;;4.22;;
30398;SDS011;17195;50.838;7.214;2023-04-24T06:37:34;5.47;;;4.20;;
30398;SDS011;17195;50.838;7.214;2023-04-24T06:40:00;8.07;;;4.80;;
30398;SDS011;17195;50.838;7.214;2023-04-24T06:42:25;6.63;;;4.82;;
30398;SDS011;17195;50.838;7.214;2023-04-24T06:44:51;7.80;;;5.35;;
30398;SDS011;17195;50.838;7.214;2023-04-24T06:47:17;10.60;;;5.22;;
30398;SDS011;17195;50.838;7.214;2023-04-24T06:49:43;8.95;;;5.30;;
30398;SDS011;17195;50.838;7.214;2023-04-24T06:52:09;10.10;;;7.55;;
30398;SDS011;17195;50.838;7.214;2023-04-24T06:54:34;8.18;;;5.97;;
30398;SDS011;17195;50.838;7.214;2023-04-24T06:57:00;7.70;;;6.00;;
30398;SDS011;17195;50.838;7.214;2023-04-24T06:59:27;11.45;;;6.20;;
30398;SDS011;17195;50.838;7.214;2023-04-24T07:01:53;7.90;;;6.38;;
30398;SDS011;17195;50.838;7.214;2023-04-24T07:04:18;7.97;;;6.28;;
30398;SDS011;17195;50.838;7.214;2023-04-24T07:06:47;7.40;;;6.43;;
30398;SDS011;17195;50.838;7.214;2023-04-24T07:09:14;11.75;;;7.03;;
30398;SDS011;17195;50.838;7.214;2023-04-24T07:11:41;8.85;;;6.13;;
30398;SDS011;17195;50.838;7.214;2023-04-24T07:14:06;8.95;;;6.90;;
30398;SDS011;17195;50.838;7.214;2023-04-24T07:16:33;7.97;;;6.25;;
30398;SDS011;17195;50.838;7.214;2023-04-24T07:18:58;9.60;;;5.38;;
30398;SDS011;17195;50.838;7.214;2023-04-24T07:21:25;6.70;;;5.03;;
30398;SDS011;17195;50.838;7.214;2023-04-24T07:23:50;7.30;;;4.70;;
30398;SDS011;17195;50.838;7.214;2023-04-24T07:26:16;5.43;;;4.28;;
30398;SDS011;17195;50.838;7.214;2023-04-24T07:28:41;8.50;;;4.38;;
30398;SDS011;17195;50.838;7.214;2023-04-24T07:31:07;6.28;;;3.90;;
30398;SDS011;17195;50.838;7.214;2023-04-24T07:33:33;4.07;;;3.22;;
30398;SDS011;17195;50.838;7.214;2023-04-24T07:35:59;3.80;;;3.50;;
30398;SDS011;17195;50.838;7.214;2023-04-24T07:38:25;6.22;;;3.25;;
30398;SDS011;17195;50.838;7.214;2023-04-24T07:40:51;4.63;;;3.53;;
30398;SDS011;17195;50.838;7.214;2023-04-24T07:43:16;3.53;;;3.08;;
30398;SDS011;17195;50.838;7.214;2023-04-24T07:45:43;4.50;;;2.70;;
30398;SDS011;17195;50.838;7.214;2023-04-24T07:48:09;6.28;;;3.08;;
30398;SDS011;17195;50.838;7.214;2023-04-24T07:50:35;6.30;;;2.70;;
30398;SDS011;17195;50.838;7.214;2023-04-24T07:53:01;2.45;;;1.80;;
30398;SDS011;17195;50.838;7.214;2023-04-24T07:55:27;1.95;;;1.52;;
30398;SDS011;17195;50.838;7.214;2023-04-24T07:57:53;2.55;;;2.13;;
30398;SDS011;17195;50.838;7.214;2023-04-24T08:00:18;3.83;;;2.10;;
30398;SDS011;17195;50.838;7.214;2023-04-24T08:02:44;1.30;;;1.20;;
30398;SDS011;17195;50.838;7.214;2023-04-24T08:05:10;1.27;;;1.17;;
30398;SDS011;17195;50.838;7.214;2023-04-24T08:07:36;4.28;;;1.30;;
30398;SDS011;17195;50.838;7.214;2023-04-24T08:10:02;1.42;;;0.90;;
30398;SDS011;17195;50.838;7.214;2023-04-24T08:12:28;1.35;;;0.73;;
30398;SDS011;17195;50.838;7.214;2023-04-24T08:14:54;4.95;;;1.20;;
30398;SDS011;17195;50.838;7.214;2023-04-24T08:17:20;1.98;;;0.95;;
30398;SDS011;17195;50.838;7.214;2023-04-24T08:19:45;1.85;;;1.17;;
30398;SDS011;17195;50.838;7.214;2023-04-24T08:22:13;3.92;;;2.13;;
30398;SDS011;17195;50.838;7.214;2023-04-24T08:24:39;2.40;;;1.40;;
30398;SDS011;17195;50.838;7.214;2023-04-24T08:27:05;5.55;;;3.05;;
30398;SDS011;17195;50.838;7.214;2023-04-24T08:29:30;5.72;;;2.90;;
30398;SDS011;17195;50.838;7.214;2023-04-24T08:31:57;6.07;;;2.45;;
30398;SDS011;17195;50.838;7.214;2023-04-24T08:34:22;5.07;;;1.55;;
30398;SDS011;17195;50.838;7.214;2023-04-24T08:36:48;2.47;;;1.60;;
30398;SDS011;17195;50.838;7.214;2023-04-24T08:39:14;2.58;;;1.65;;
30398;SDS011;17195;50.838;7.214;2023-04-24T08:41:41;2.80;;;1.45;;
30398;SDS011;17195;50.838;7.214;2023-04-24T08:44:10;2.90;;;1.45;;
30398;SDS011;17195;50.838;7.214;2023-04-24T08:46:37;3.00;;;1.50;;
30398;SDS011;17195;50.838;7.214;2023-04-24T08:49:04;2.28;;;1.52;;
30398;SDS011;17195;50.838;7.214;2023-04-24T08:51:30;2.58;;;1.52;;
30398;SDS011;17195;50.838;7.214;2023-04-24T08:53:56;2.53;;;1.30;;
30398;SDS011;17195;50.838;7.214;2023-04-24T08:56:22;2.58;;;2.05;;
30398;SDS011;17195;50.838;7.214;2023-04-24T08:58:50;4.90;;;2.08;;
30398;SDS011;17195;50.838;7.214;2023-04-24T09:01:20;4.38;;;2.35;;
30398;SDS011;17195;50.838;7.214;2023-04-24T09:03:48;4.10;;;2.10;;
30398;SDS011;17195;50.838;7.214;2023-04-24T09:06:15;3.85;;;2.05;;
30398;SDS011;17195;50.838;7.214;2023-04-24T09:08:44;5.43;;;2.13;;
30398;SDS011;17195;50.838;7.214;2023-04-24T09:11:10;2.72;;;1.90;;
30398;SDS011;17195;50.838;7.214;2023-04-24T09:13:36;2.60;;;2.05;;
30398;SDS011;17195;50.838;7.214;2023-04-24T09:16:02;7.13;;;1.90;;
30398;SDS011;17195;50.838;7.214;2023-04-24T09:18:28;4.18;;;2.28;;
30398;SDS011;17195;50.838;7.214;2023-04-24T09:20:57;4.22;;;2.30;;
30398;SDS011;17195;50.838;7.214;2023-04-24T09:23:22;5.07;;;2.40;;
30398;SDS011;17195;50.838;7.214;2023-04-24T09:25:53;5.22;;;3.35;;
30398;SDS011;17195;50.838;7.214;2023-04-24T09:28:22;4.00;;;3.22;;
30398;SDS011;17195;50.838;7.214;2023-04-24T09:33:57;13.18;;;7.65;;
30398;SDS011;17195;50.838;7.214;2023-04-24T09:36:32;17.52;;;10.13;;
30398;SDS011;17195;50.838;7.214;2023-04-24T09:39:03;7.45;;;4.68;;
30398;SDS011;17195;50.838;7.214;2023-04-24T09:41:31;6.95;;;3.90;;
30398;SDS011;17195;50.838;7.214;2023-04-24T09:44:01;11.63;;;7.38;;
30398;SDS011;17195;50.838;7.214;2023-04-24T09:46:45;7.65;;;6.35;;
30398;SDS011;17195;50.838;7.214;2023-04-24T09:49:15;7.40;;;6.32;;
30398;SDS011;17195;50.838;7.214;2023-04-24T09:51:42;6.53;;;4.75;;
30398;SDS011;17195;50.838;7.214;2023-04-24T09:54:18;7.72;;;4.50;;
30398;SDS011;17195;50.838;7.214;2023-04-24T09:56:46;6.75;;;4.70;;
30398;SDS011;17195;50.838;7.214;2023-04-24T09:59:13;8.40;;;4.78;;
30398;SDS011;17195;50.838;7.214;2023-04-24T10:01:40;8.93;;;5.13;;
30398;SDS011;17195;50.838;7.214;2023-04-24T10:04:22;10.00;;;5.82;;
30398;SDS011;17195;50.838;7.214;2023-04-24T10:06:50;9.40;;;5.90;;
30398;SDS011;17195;50.838;7.214;2023-04-24T10:09:18;9.07;;;6.05;;
30398;SDS011;17195;50.838;7.214;2023-04-24T10:11:46;10.90;;;7.00;;
30398;SDS011;17195;50.838;7.214;2023-04-24T10:14:16;14.02;;;7.20;;
30398;SDS011;17195;50.838;7.214;2023-04-24T10:16:46;12.98;;;6.32;;
30398;SDS011;17195;50.838;7.214;2023-04-24T10:19:13;11.23;;;6.82;;
30398;SDS011;17195;50.838;7.214;2023-04-24T10:21:40;9.45;;;6.75;;
30398;SDS011;17195;50.838;7.214;2023-04-24T10:24:08;10.77;;;6.72;;
30398;SDS011;17195;50.838;7.214;2023-04-24T10:26:34;11.73;;;6.30;;
30398;SDS011;17195;50.838;7.214;2023-04-24T10:29:00;8.45;;;6.50;;
30398;SDS011;17195;50.838;7.214;2023-04-24T10:31:26;9.82;;;5.78;;
30398;SDS011;17195;50.838;7.214;2023-04-24T10:33:55;9.93;;;5.72;;
30398;SDS011;17195;50.838;7.214;2023-04-24T10:36:22;9.60;;;6.55;;
30398;SDS011;17195;50.838;7.214;2023-04-24T10:38:51;10.07;;;6.50;;
30398;SDS011;17195;50.838;7.214;2023-04-24T10:41:19;11.00;;;5.90;;
30398;SDS011;17195;50.838;7.214;2023-04-24T10:43:48;10.85;;;5.32;;
30398;SDS011;17195;50.838;7.214;2023-04-24T10:46:28;8.20;;;5.07;;
30398;SDS011;17195;50.838;7.214;2023-04-24T10:48:55;11.43;;;4.85;;
30398;SDS011;17195;50.838;7.214;2023-04-24T10:51:21;8.32;;;5.43;;
30398;SDS011;17195;50.838;7.214;2023-04-24T10:53:48;7.63;;;4.95;;
30398;SDS011;17195;50.838;7.214;2023-04-24T10:56:17;9.80;;;4.82;;
30398;SDS011;17195;50.838;7.214;2023-04-24T10:58:44;10.27;;;6.50;;
30398;SDS011;17195;50.838;7.214;2023-04-24T11:01:31;6.28;;;4.38;;
30398;SDS011;17195;50.838;7.214;2023-04-24T11:03:58;11.68;;;6.63;;
30398;SDS011;17195;50.838;7.214;2023-04-24T11:06:32;7.90;;;5.82;;
30398;SDS011;17195;50.838;7.214;2023-04-24T11:09:03;11.45;;;6.72;;
30398;SDS011;17195;50.838;7.214;2023-04-24T11:11:33;12.68;;;8.32;;
30398;SDS011;17195;50.838;7.214;2023-04-24T11:14:02;12.68;;;7.45;;
30398;SDS011;17195;50.838;7.214;2023-04-24T11:21:45;10.63;;;7.20;;
30398;SDS011;17195;50.838;7.214;2023-04-24T11:32:25;10.88;;;5.05;;
30398;SDS011;17195;50.838;7.214;2023-04-24T11:37:27;12.23;;;4.13;;
30398;SDS011;17195;50.838;7.214;2023-04-24T11:39:55;10.10;;;4.80;;
30398;SDS011;17195;50.838;7.214;2023-04-24T11:42:22;15.20;;;6.38;;
30398;SDS011;17195;50.838;7.214;2023-04-24T11:44:49;10.38;;;5.30;;
30398;SDS011;17195;50.838;7.214;2023-04-24T11:47:16;10.98;;;5.75;;
30398;SDS011;17195;50.838;7.214;2023-04-24T11:49:42;11.07;;;5.00;;
30398;SDS011;17195;50.838;7.214;2023-04-24T11:52:07;13.45;;;6.45;;
30398;SDS011;17195;50.838;7.214;2023-04-24T11:54:33;9.98;;;5.75;;
30398;SDS011;17195;50.838;7.214;2023-04-24T11:56:59;9.55;;;5.07;;
30398;SDS011;17195;50.838;7.214;2023-04-24T11:59:28;9.73;;;6.28;;
30398;SDS011;17195;50.838;7.214;2023-04-24T12:01:54;7.47;;;5.28;;
30398;SDS011;17195;50.838;7.214;2023-04-24T12:04:19;12.85;;;5.00;;
30398;SDS011;17195;50.838;7.214;2023-04-24T12:07:01;9.73;;;6.75;;
30398;SDS011;17195;50.838;7.214;2023-04-24T12:09:27;7.90;;;5.63;;
30398;SDS011;17195;50.838;7.214;2023-04-24T12:11:53;10.63;;;5.15;;
30398;SDS011;17195;50.838;7.214;2023-04-24T12:14:23;8.25;;;3.90;;
30398;SDS011;17195;50.838;7.214;2023-04-24T12:16:51;9.30;;;5.00;;
30398;SDS011;17195;50.838;7.214;2023-04-24T12:19:21;8.48;;;4.70;;
30398;SDS011;17195;50.838;7.214;2023-04-24T12:22:00;10.20;;;5.38;;
30398;SDS011;17195;50.838;7.214;2023-04-24T12:24:30;10.93;;;5.18;;
30398;SDS011;17195;50.838;7.214;2023-04-24T12:26:56;10.50;;;4.90;;
30398;SDS011;17195;50.838;7.214;2023-04-24T12:29:23;12.57;;;7.45;;
30398;SDS011;17195;50.838;7.214;2023-04-24T12:31:50;10.15;;;4.93;;
30398;SDS011;17195;50.838;7.214;2023-04-24T12:34:17;10.55;;;5.45;;
30398;SDS011;17195;50.838;7.214;2023-04-24T12:36:46;7.85;;;4.10;;
30398;SDS011;17195;50.838;7.214;2023-04-24T12:39:16;10.48;;;5.10;;
30398;SDS011;17195;50.838;7.214;2023-04-24T12:41:55;8.63;;;4.82;;
30398;SDS011;17195;50.838;7.214;2023-04-24T12:44:31;14.30;;;5.50;;
30398;SDS011;17195;50.838;7.214;2023-04-24T12:46:59;16.00;;;6.45;;
30398;SDS011;17195;50.838;7.214;2023-04-24T12:49:25;12.18;;;5.78;;
30398;SDS011;17195;50.838;7.214;2023-04-24T12:51:51;14.85;;;6.65;;
30398;SDS011;17195;50.838;7.214;2023-04-24T12:54:16;15.25;;;7.53;;
30398;SDS011;17195;50.838;7.214;2023-04-24T12:56:42;16.90;;;8.60;;
30398;SDS011;17195;50.838;7.214;2023-04-24T12:59:08;16.67;;;8.95;;
30398;SDS011;17195;50.838;7.214;2023-04-24T13:01:33;15.93;;;8.77;;
30398;SDS011;17195;50.838;7.214;2023-04-24T13:03:59;17.15;;;8.80;;
30398;SDS011;17195;50.838;7.214;2023-04-24T13:06:24;18.05;;;9.10;;
30398;SDS011;17195;50.838;7.214;2023-04-24T13:08:51;20.52;;;11.02;;
30398;SDS011;17195;50.838;7.214;2023-04-24T13:11:17;18.40;;;10.65;;
30398;SDS011;17195;50.838;7.214;2023-04-24T13:13:42;12.18;;;7.05;;
30398;SDS011;17195;50.838;7.214;2023-04-24T13:16:08;14.50;;;7.93;;
30398;SDS011;17195;50.838;7.214;2023-04-24T13:18:34;14.98;;;7.15;;
30398;SDS011;17195;50.838;7.214;2023-04-24T13:20:59;12.40;;;6.68;;
30398;SDS011;17195;50.838;7.214;2023-04-24T13:23:25;8.52;;;4.85;;
30398;SDS011;17195;50.838;7.214;2023-04-24T13:25:51;17.05;;;5.53;;
30398;SDS011;17195;50.838;7.214;2023-04-24T13:28:16;10.20;;;4.18;;
30398;SDS011;17195;50.838;7.214;2023-04-24T13:30:42;11.70;;;4.65;;
30398;SDS011;17195;50.838;7.214;2023-04-24T13:33:08;11.07;;;5.10;;
30398;SDS011;17195;50.838;7.214;2023-04-24T13:35:33;13.18;;;5.00;;
30398;SDS011;17195;50.838;7.214;2023-04-24T13:37:59;12.15;;;5.20;;
30398;SDS011;17195;50.838;7.214;2023-04-24T13:40:26;11.95;;;4.75;;
30398;SDS011;17195;50.838;7.214;2023-04-24T13:42:52;13.63;;;4.80;;
30398;SDS011;17195;50.838;7.214;2023-04-24T13:45:17;10.13;;;4.60;;
30398;SDS011;17195;50.838;7.214;2023-04-24T13:47:43;7.38;;;4.22;;
30398;SDS011;17195;50.838;7.214;2023-04-24T13:50:09;10.07;;;4.18;;
30398;SDS011;17195;50.838;7.214;2023-04-24T13:52:35;11.93;;;4.85;;
30398;SDS011;17195;50.838;7.214;2023-04-24T13:55:00;10.30;;;5.13;;
30398;SDS011;17195;50.838;7.214;2023-04-24T13:57:26;10.02;;;4.93;;
30398;SDS011;17195;50.838;7.214;2023-04-24T13:59:53;7.47;;;4.15;;
30398;SDS011;17195;50.838;7.214;2023-04-24T14:02:20;8.88;;;4.90;;
30398;SDS011;17195;50.838;7.214;2023-04-24T14:04:46;8.40;;;4.68;;
30398;SDS011;17195;50.838;7.214;2023-04-24T14:07:13;8.55;;;3.88;;
30398;SDS011;17195;50.838;7.214;2023-04-24T14:09:38;15.85;;;5.70;;
30398;SDS011;17195;50.838;7.214;2023-04-24T14:12:04;9.05;;;4.88;;
30398;SDS011;17195;50.838;7.214;2023-04-24T14:14:30;12.60;;;5.20;;
30398;SDS011;17195;50.838;7.214;2023-04-24T14:16:56;9.20;;;5.00;;
30398;SDS011;17195;50.838;7.214;2023-04-24T14:19:22;10.82;;;5.47;;
30398;SDS011;17195;50.838;7.214;2023-04-24T14:21:47;10.15;;;4.90;;
30398;SDS011;17195;50.838;7.214;2023-04-24T14:24:13;9.65;;;5.63;;
30398;SDS011;17195;50.838;7.214;2023-04-24T14:26:38;12.57;;;5.60;;
30398;SDS011;17195;50.838;7.214;2023-04-24T14:29:04;12.77;;;6.93;;
30398;SDS011;17195;50.838;7.214;2023-04-24T14:31:29;7.40;;;5.05;;
30398;SDS011;17195;50.838;7.214;2023-04-24T14:33:55;14.55;;;8.40;;
30398;SDS011;17195;50.838;7.214;2023-04-24T14:36:22;11.50;;;6.00;;
30398;SDS011;17195;50.838;7.214;2023-04-24T14:38:47;11.50;;;4.93;;
30398;SDS011;17195;50.838;7.214;2023-04-24T14:41:14;10.07;;;4.72;;
30398;SDS011;17195;50.838;7.214;2023-04-24T14:43:39;13.18;;;4.57;;
30398;SDS011;17195;50.838;7.214;2023-04-24T14:46:05;10.18;;;5.13;;
30398;SDS011;17195;50.838;7.214;2023-04-24T14:48:30;9.07;;;4.43;;
30398;SDS011;17195;50.838;7.214;2023-04-24T14:50:56;9.95;;;4.85;;
30398;SDS011;17195;50.838;7.214;2023-04-24T14:53:22;7.50;;;4.03;;
30398;SDS011;17195;50.838;7.214;2023-04-24T14:55:47;11.02;;;4.22;;
30398;SDS011;17195;50.838;7.214;2023-04-24T14:58:13;9.45;;;3.95;;
30398;SDS011;17195;50.838;7.214;2023-04-24T15:00:38;6.15;;;3.45;;